.
WxDataArchive / Data Records for 2007-06-11
2007-06-10 June 2007 2007-06-12

Data Records for Monday, 11 June 2007

Time	Temp	Chill	HIndex	Humid	Dewpt	 Wind 	HiWind	WindDir	Rain 	Barom 
-----	----	-----	------	-----	-----	------	------	-------	-----	----- 
00:00	61.6	61.6	61.6	69	51.3	0	0	---	0.00	30.045 
00:05	61.3	61.3	61.3	69	51.0	0	0	---	0.00	30.044 
00:10	61.2	61.2	61.2	70	51.3	0	0	---	0.00	30.042 
00:15	60.9	60.9	60.9	71	51.4	0	0	---	0.00	30.041 
00:20	60.5	60.5	60.5	71	51.0	0	0	---	0.00	30.042 
00:25	60.4	60.4	60.4	71	50.9	0	0	---	0.00	30.044 
00:30	60.1	60.1	60.1	72	51.0	0	0	---	0.00	30.042 
00:35	59.9	59.9	59.9	72	50.8	0	0	---	0.00	30.040 
00:40	59.8	59.8	59.8	72	50.8	0	0	---	0.00	30.040 
00:45	59.6	59.6	59.6	72	50.6	0	0	---	0.00	30.041 
00:50	59.6	59.6	59.6	72	50.6	0	0	---	0.00	30.040 
00:55	59.5	59.5	59.5	72	50.5	0	0	---	0.00	30.040 
01:00	59.5	59.5	59.5	73	50.8	0	0	---	0.00	30.041 
01:05	59.2	59.2	59.2	73	50.5	0	0	---	0.00	30.042 
01:10	59.0	59.0	59.0	73	50.4	0	0	---	0.00	30.043 
01:15	58.7	58.7	58.7	74	50.4	0	0	---	0.00	30.041 
01:20	58.6	58.6	58.6	75	50.7	0	0	---	0.00	30.042 
01:25	58.3	58.3	58.3	75	50.4	0	0	---	0.00	30.043 
01:30	58.0	58.0	58.0	75	50.1	0	0	---	0.00	30.044 
01:35	57.8	57.8	57.8	77	50.6	0	0	---	0.00	30.045 
01:40	57.6	57.6	57.6	77	50.4	0	0	---	0.00	30.045 
01:45	57.5	57.5	57.5	77	50.3	0	0	---	0.00	30.045 
01:50	57.3	57.3	57.3	78	50.5	0	0	---	0.00	30.047 
01:55	57.2	57.2	57.2	79	50.7	0	0	---	0.00	30.049 
02:00	57.0	57.0	57.0	80	50.9	0	0	---	0.00	30.051 
02:05	56.9	56.9	56.9	81	51.1	0	0	---	0.00	30.052 
02:10	56.7	56.7	56.7	81	50.9	0	0	---	0.00	30.053 
02:15	56.6	56.6	56.6	82	51.2	0	0	---	0.00	30.053 
02:20	56.5	56.5	56.5	82	51.1	0	0	---	0.00	30.052 
02:25	56.3	56.3	56.3	83	51.2	0	0	---	0.00	30.052 
02:30	56.0	56.0	56.0	83	50.9	0	0	---	0.00	30.054 
02:35	55.9	55.9	55.9	83	50.8	0	0	---	0.00	30.054 
02:40	55.7	55.7	55.7	84	50.9	0	0	---	0.00	30.055 
02:45	55.6	55.6	55.6	84	50.8	0	0	---	0.00	30.058 
02:50	55.4	55.4	55.4	85	51.0	0	0	---	0.00	30.060 
02:55	55.3	55.3	55.3	85	50.9	0	0	---	0.00	30.060 
03:00	55.1	55.1	55.1	86	51.0	0	0	---	0.00	30.059 
03:05	55.0	55.0	55.0	86	50.9	0	0	---	0.00	30.057 
03:10	54.8	54.8	54.8	87	51.0	0	0	---	0.00	30.056 
03:15	54.8	54.8	54.8	87	51.0	0	0	---	0.00	30.054 
03:20	54.7	54.7	54.7	87	50.9	0	0	---	0.00	30.053 
03:25	54.5	54.5	54.5	87	50.7	0	0	---	0.00	30.053 
03:30	54.4	54.4	54.4	87	50.6	0	0	---	0.00	30.055 
03:35	54.2	54.2	54.2	87	50.4	0	0	---	0.00	30.057 
03:40	54.2	54.2	54.2	87	50.4	0	0	---	0.00	30.056 
03:45	54.1	54.1	54.1	88	50.6	0	0	---	0.00	30.058 
03:50	54.1	54.1	54.1	88	50.6	0	0	---	0.00	30.059 
03:55	54.1	54.1	54.1	88	50.6	0	0	---	0.00	30.060 
04:00	53.9	53.9	53.9	89	50.7	0	0	---	0.00	30.059 
04:05	53.9	53.9	53.9	89	50.7	0	0	---	0.00	30.059 
04:10	53.8	53.8	53.8	89	50.6	0	0	---	0.00	30.061 
04:15	53.6	53.6	53.6	89	50.4	0	0	---	0.00	30.060 
04:20	53.6	53.6	53.6	90	50.7	0	0	---	0.00	30.062 
04:25	53.5	53.5	53.5	90	50.6	0	0	---	0.00	30.063 
04:30	53.5	53.5	53.5	90	50.6	0	0	---	0.00	30.062 
04:35	53.3	53.3	53.3	91	50.7	0	0	---	0.00	30.062 
04:40	53.3	53.3	53.3	91	50.7	0	0	---	0.00	30.061 
04:45	53.2	53.2	53.2	91	50.6	0	0	---	0.00	30.060 
04:50	53.2	53.2	53.2	92	50.9	0	0	---	0.00	30.060 
04:55	53.1	53.1	53.1	92	50.8	0	0	---	0.00	30.061 
05:00	52.9	52.9	52.9	92	50.6	0	0	---	0.00	30.061 
05:05	52.9	52.9	52.9	92	50.6	0	0	---	0.00	30.063 
05:10	52.9	52.9	52.9	92	50.6	0	0	---	0.00	30.064 
05:15	52.8	52.8	52.8	92	50.5	0	0	---	0.00	30.065 
05:20	52.8	52.8	52.8	92	50.5	0	0	---	0.00	30.065 
05:25	52.8	52.8	52.8	92	50.5	0	0	---	0.00	30.065 
05:30	52.8	52.8	52.8	92	50.5	0	0	---	0.00	30.066 
05:35	52.9	52.9	52.9	92	50.6	0	0	---	0.00	30.069 
05:40	52.9	52.9	52.9	93	50.9	0	0	---	0.00	30.069 
05:45	53.1	53.1	53.1	93	51.1	0	0	---	0.00	30.070 
05:50	53.2	53.2	53.2	93	51.2	0	0	---	0.00	30.072 
05:55	53.3	53.3	53.3	93	51.3	0	0	---	0.00	30.076 
06:00	53.5	53.5	53.5	93	51.5	0	0	---	0.00	30.077 
06:05	53.8	53.8	53.8	93	51.8	0	0	---	0.00	30.078 
06:10	53.9	53.9	53.9	93	51.9	0	0	---	0.00	30.080 
06:15	54.4	54.4	54.4	93	52.4	0	0	---	0.00	30.081 
06:20	54.8	54.8	54.8	93	52.8	0	0	---	0.00	30.081 
06:25	55.6	55.6	55.6	93	53.6	0	0	---	0.00	30.084 
06:30	56.3	56.3	56.3	92	54.0	0	0	---	0.00	30.085 
06:35	57.3	57.3	57.3	90	54.4	0	0	---	0.00	30.087 
06:40	58.3	58.3	58.3	87	54.4	0	0	---	0.00	30.088 
06:45	59.2	59.2	59.2	84	54.4	0	0	---	0.00	30.089 
06:50	60.1	60.1	60.1	81	54.2	0	0	---	0.00	30.088 
06:55	61.0	61.0	61.0	79	54.4	0	0	---	0.00	30.089 
07:00	61.8	61.8	61.8	77	54.5	0	0	---	0.00	30.088 
07:05	62.6	62.6	62.6	74	54.2	0	0	---	0.00	30.092 
07:10	63.5	63.5	63.5	73	54.7	0	0	---	0.00	30.093 
07:15	64.7	64.7	64.7	69	54.3	0	0	---	0.00	30.092 
07:20	65.6	65.6	65.6	67	54.3	0	0	---	0.00	30.090 
07:25	66.6	66.6	66.6	64	54.0	0	0	---	0.00	30.092 
07:30	67.8	67.8	67.8	58	52.5	0	1	135	0.00	30.095 
07:35	68.8	68.8	68.8	57	52.9	0	1	135	0.00	30.094 
07:40	69.1	69.1	69.1	54	51.7	0	0	---	0.00	30.097 
07:45	69.4	69.4	69.4	55	52.5	0	1	135	0.00	30.098 
07:50	69.9	69.9	69.9	53	52.0	0	2	135	0.00	30.101 
07:55	69.9	69.9	69.9	49	49.9	0	1	135	0.00	30.101 
08:00	70.6	70.6	70.6	50	51.0	0	1	135	0.00	30.101 
08:05	71.8	71.8	71.8	46	49.9	0	1	135	0.00	30.103 
08:10	72.0	72.0	72.0	47	50.7	0	2	135	0.00	30.104 
08:15	71.8	71.8	71.8	48	51.0	0	2	180	0.00	30.104 
08:20	72.1	72.1	72.1	48	51.3	0	1	180	0.00	30.104 
08:25	73.0	73.0	73.0	50	53.2	0	2	180	0.00	30.103 
08:30	73.2	73.2	73.2	46	51.2	0	1	180	0.00	30.103 
08:35	73.2	73.2	73.2	46	51.2	0	2	180	0.00	30.104 
08:40	74.4	74.4	74.4	46	52.3	0	2	180	0.00	30.102 
08:45	74.6	74.6	74.6	44	51.2	0	2	180	0.00	30.104 
08:50	74.2	74.2	74.2	43	50.2	0	2	180	0.00	30.104 
08:55	74.9	74.9	74.9	44	51.5	1	3	135	0.00	30.106 
09:00	75.4	75.4	77.8	47	53.7	0	1	135	0.00	30.105 
09:05	75.8	75.8	77.8	41	50.4	1	3	135	0.00	30.107 
09:10	75.8	75.8	77.9	44	52.3	1	2	135	0.00	30.108 
09:15	75.8	75.8	77.7	40	49.7	1	3	90	0.00	30.107 
09:20	75.8	75.8	77.8	43	51.7	1	3	90	0.00	30.105 
09:25	76.1	76.1	77.9	42	51.3	0	3	90	0.00	30.106 
09:30	76.1	76.1	78.0	44	52.6	1	2	90	0.00	30.105 
09:35	76.1	76.1	77.9	42	51.3	1	3	248	0.00	30.105 
09:40	76.0	76.0	77.9	42	51.2	1	3	248	0.00	30.107 
09:45	76.3	76.3	78.1	45	53.4	1	3	135	0.00	30.105 
09:50	76.5	76.5	78.0	40	50.4	2	5	90	0.00	30.104 
09:55	76.8	76.8	78.1	40	50.6	1	3	112	0.00	30.105 
10:00	77.2	77.2	78.4	41	51.7	1	3	90	0.00	30.104 
10:05	77.6	77.6	78.5	39	50.7	1	4	90	0.00	30.105 
10:10	77.6	77.6	78.5	39	50.7	1	3	270	0.00	30.106 
10:15	77.7	77.7	78.5	39	50.7	1	4	270	0.00	30.105 
10:20	78.1	78.1	78.8	40	51.8	1	3	112	0.00	30.106 
10:25	78.5	78.5	78.9	39	51.5	1	4	112	0.00	30.105 
10:30	78.5	78.5	78.9	38	50.8	2	5	90	0.00	30.103 
10:35	77.9	77.9	78.6	38	50.2	2	5	90	0.00	30.103 
10:40	78.3	78.3	78.8	39	51.3	1	2	112	0.00	30.104 
10:45	78.6	78.6	78.7	35	48.6	2	5	90	0.00	30.107 
10:50	78.6	78.6	78.9	38	50.8	1	3	90	0.00	30.106 
10:55	79.0	79.0	79.2	38	51.2	1	4	90	0.00	30.105 
11:00	79.6	79.6	79.4	37	51.0	1	3	90	0.00	30.103 
11:05	79.8	79.8	79.6	37	51.2	2	5	90	0.00	30.104 
11:10	79.6	79.6	79.4	37	51.0	2	5	90	0.00	30.104 
11:15	79.4	79.4	79.5	39	52.3	3	5	112	0.00	30.106 
11:20	79.6	79.6	79.4	36	50.3	1	2	112	0.00	30.104 
11:25	79.9	79.9	79.7	38	52.0	1	5	90	0.00	30.103 
11:30	80.3	80.3	79.8	36	50.9	1	4	90	0.00	30.103 
11:35	80.1	80.1	79.8	37	51.5	3	5	90	0.00	30.105 
11:40	80.1	80.1	79.8	38	52.2	1	3	68	0.00	30.104 
11:45	80.5	80.5	79.9	36	51.1	2	6	90	0.00	30.103 
11:50	80.3	80.3	79.7	35	50.1	2	7	90	0.00	30.105 
11:55	80.7	80.7	80.1	36	51.2	1	3	90	0.00	30.105 
12:00	81.1	81.1	80.8	41	55.1	1	2	112	0.00	30.104 
12:05	81.2	81.2	80.5	37	52.4	1	4	90	0.00	30.106 
12:10	81.1	81.1	80.3	35	50.8	2	5	90	0.00	30.105 
12:15	81.1	81.1	80.2	34	50.0	2	6	112	0.00	30.105 
12:20	81.2	81.2	80.3	35	50.9	1	3	90	0.00	30.105 
12:25	81.6	81.6	80.5	34	50.5	1	3	248	0.00	30.104 
12:30	82.2	82.2	80.9	33	50.2	0	5	248	0.00	30.103 
12:35	82.6	82.6	81.6	37	53.7	1	4	90	0.00	30.103 
12:40	82.6	82.6	81.3	34	51.4	2	5	90	0.00	30.103 
12:45	82.8	82.8	81.3	33	50.7	1	4	90	0.00	30.102 
12:50	83.2	83.2	81.6	32	50.2	1	3	135	0.00	30.101 
12:55	83.2	83.2	81.8	34	51.9	1	5	45	0.00	30.101 
13:00	83.4	83.4	81.8	33	51.2	1	4	90	0.00	30.099 
13:05	83.2	83.2	81.7	33	51.1	1	5	112	0.00	30.097 
13:10	82.8	82.8	81.4	34	51.5	2	4	90	0.00	30.098 
13:15	82.8	82.8	81.3	33	50.7	1	4	90	0.00	30.096 
13:20	82.8	82.8	81.6	35	52.3	1	5	68	0.00	30.095 
13:25	82.6	82.6	81.1	32	49.7	2	5	90	0.00	30.094 
13:30	82.8	82.8	81.7	36	53.1	1	3	90	0.00	30.092 
13:35	83.0	83.0	81.3	31	49.2	1	4	90	0.00	30.090 
13:40	83.2	83.2	81.9	35	52.7	0	2	270	0.00	30.089 
13:45	82.8	82.8	81.2	31	49.0	0	2	270	0.00	30.090 
13:50	82.0	82.0	80.9	35	51.6	0	1	292	0.00	30.093 
13:55	81.8	81.8	80.8	35	51.4	0	2	292	0.00	30.093 
14:00	82.2	82.2	81.5	39	54.7	0	1	292	0.00	30.091 
14:05	83.0	83.0	81.6	34	51.7	1	4	90	0.00	30.092 
14:10	83.4	83.4	81.9	34	52.1	1	3	90	0.00	30.091 
14:15	83.2	83.2	81.8	34	51.9	0	1	90	0.00	30.089 
14:20	83.0	83.0	81.3	31	49.2	1	3	90	0.00	30.090 
14:25	82.8	82.8	82.0	39	55.3	0	2	90	0.00	30.090 
14:30	83.2	83.2	82.3	38	54.9	0	2	90	0.00	30.088 
14:35	83.6	83.6	81.9	32	50.6	1	3	90	0.00	30.086 
14:40	84.3	84.3	83.0	36	54.4	1	3	180	0.00	30.086 
14:45	84.7	84.7	83.7	38	56.2	1	3	90	0.00	30.080 
14:50	85.1	85.1	83.5	34	53.5	0	2	90	0.00	30.080 
14:55	84.5	84.5	82.5	31	50.5	1	2	90	0.00	30.078 
15:00	84.7	84.7	83.0	33	52.4	1	4	90	0.00	30.076 
15:05	84.7	84.7	82.7	31	50.7	0	3	0	0.00	30.077 
15:10	84.9	84.9	82.9	31	50.9	1	3	225	0.00	30.077 
15:15	85.1	85.1	83.5	34	53.5	0	4	45	0.00	30.075 
15:20	85.1	85.1	83.5	34	53.5	1	4	45	0.00	30.074 
15:25	84.5	84.5	82.3	29	48.7	1	4	292	0.00	30.075 
15:30	84.5	84.5	82.6	32	51.4	1	3	292	0.00	30.073 
15:35	84.5	84.5	82.5	31	50.5	0	2	292	0.00	30.072 
15:40	84.7	84.7	83.5	37	55.5	1	3	45	0.00	30.069 
15:45	85.1	85.1	83.8	36	55.1	0	3	45	0.00	30.066 
15:50	85.3	85.3	83.2	31	51.2	0	2	22	0.00	30.062 
15:55	85.5	85.5	83.8	34	53.9	1	4	68	0.00	30.060 
16:00	85.3	85.3	83.2	31	51.2	1	3	292	0.00	30.061 
16:05	84.9	84.9	83.0	32	51.7	0	2	292	0.00	30.060 
16:10	84.7	84.7	83.4	36	54.8	1	5	270	0.00	30.059 
16:15	84.3	84.3	82.4	31	50.3	1	2	112	0.00	30.059 
16:20	84.1	84.1	82.7	35	53.5	1	2	112	0.00	30.059 
16:25	84.1	84.1	82.7	35	53.5	1	3	90	0.00	30.059 
16:30	84.5	84.5	82.8	33	52.2	1	6	90	0.00	30.056 
16:35	84.7	84.7	82.7	31	50.7	0	3	90	0.00	30.058 
16:40	84.7	84.7	82.8	32	51.5	1	6	90	0.00	30.055 
16:45	84.5	84.5	82.8	33	52.2	1	3	90	0.00	30.055 
16:50	84.7	84.7	83.0	33	52.4	0	1	90	0.00	30.054 
16:55	84.3	84.3	82.5	32	51.2	1	3	90	0.00	30.053 
17:00	84.0	84.0	82.0	30	49.2	0	1	338	0.00	30.051 
17:05	83.8	83.8	82.4	35	53.2	1	4	90	0.00	30.048 
17:10	83.4	83.4	82.3	37	54.4	2	4	90	0.00	30.048 
17:15	83.0	83.0	81.7	35	52.5	1	4	90	0.00	30.048 
17:20	82.8	82.8	81.9	38	54.6	1	2	112	0.00	30.046 
17:25	79.8	79.8	79.8	40	53.3	2	6	112	0.00	30.046 
17:30	73.7	73.7	73.7	64	60.7	1	3	135	0.00	30.049 
17:35	70.1	70.1	70.1	73	61.0	0	1	135	0.00	30.052 
17:40	68.9	68.9	68.9	73	59.9	0	4	270	0.00	30.054 
17:45	69.3	69.3	69.3	66	57.4	1	4	68	0.00	30.054 
17:50	70.1	70.1	70.1	66	58.2	0	2	68	0.00	30.053 
17:55	72.1	72.1	72.1	56	55.5	2	4	90	0.00	30.052 
18:00	73.2	73.2	73.2	53	55.0	1	3	90	0.00	30.051 
18:05	73.9	73.9	73.9	53	55.7	1	4	112	0.00	30.044 
18:10	74.0	74.0	74.0	51	54.7	1	4	112	0.00	30.044 
18:15	74.0	74.0	74.0	55	56.8	1	4	112	0.00	30.043 
18:20	74.6	74.6	74.6	48	53.6	2	4	90	0.00	30.043 
18:25	74.7	74.7	74.7	47	53.1	1	5	90	0.00	30.043 
18:30	74.6	74.6	74.6	53	56.3	0	2	338	0.00	30.043 
18:35	74.7	74.7	74.7	52	55.9	1	5	22	0.00	30.043 
18:40	75.3	75.3	77.7	46	53.1	0	2	135	0.00	30.041 
18:45	72.5	72.5	72.5	57	56.4	1	2	135	0.00	30.044 
18:50	69.6	69.6	69.6	67	58.1	0	2	158	0.00	30.046 
18:55	68.1	68.1	68.1	71	58.3	1	3	158	0.00	30.047 
19:00	66.9	66.9	66.9	79	60.2	0	1	112	0.00	30.048 
19:05	66.1	66.1	66.1	81	60.1	0	3	112	0.00	30.042 
19:10	66.0	66.0	66.0	79	59.3	0	1	112	0.00	30.042 
19:15	66.4	66.4	66.4	74	57.9	0	3	112	0.00	30.042 
19:20	66.4	66.4	66.4	73	57.5	0	2	112	0.00	30.041 
19:25	67.1	67.1	67.1	65	54.9	1	3	112	0.00	30.040 
19:30	67.4	67.4	67.4	73	58.4	0	2	112	0.00	30.039 
19:35	67.6	67.6	67.6	70	57.5	0	2	112	0.00	30.040 
19:40	67.6	67.6	67.6	75	59.4	0	1	112	0.00	30.038 
19:45	67.6	67.6	67.6	77	60.1	0	1	112	0.00	30.037 
19:50	67.3	67.3	67.3	76	59.5	0	1	112	0.00	30.036 
19:55	67.1	67.1	67.1	75	58.9	0	2	112	0.00	30.036 
20:00	66.9	66.9	66.9	77	59.4	0	1	112	0.00	30.035 
20:05	67.1	67.1	67.1	73	58.1	0	2	112	0.00	30.035 
20:10	66.9	66.9	66.9	74	58.3	0	1	112	0.00	30.035 
20:15	66.9	66.9	66.9	73	58.0	0	1	112	0.00	30.036 
20:20	66.8	66.8	66.8	72	57.5	0	1	112	0.00	30.037 
20:25	66.8	66.8	66.8	74	58.2	0	1	112	0.00	30.038 
20:30	66.6	66.6	66.6	75	58.4	0	0	---	0.00	30.038 
20:35	66.4	66.4	66.4	75	58.2	0	1	112	0.00	30.040 
20:40	66.1	66.1	66.1	77	58.7	0	0	---	0.00	30.041 
20:45	66.1	66.1	66.1	74	57.6	0	0	---	0.00	30.041 
20:50	66.0	66.0	66.0	75	57.8	0	0	---	0.00	30.041 
20:55	65.8	65.8	65.8	76	58.0	0	0	---	0.00	30.042 
21:00	65.8	65.8	65.8	75	57.6	0	0	---	0.00	30.045 
21:05	65.8	65.8	65.8	75	57.6	0	0	---	0.00	30.050 
21:10	65.6	65.6	65.6	77	58.2	0	0	---	0.00	30.053 
21:15	65.6	65.6	65.6	77	58.2	0	2	112	0.00	30.054 
21:20	65.8	65.8	65.8	75	57.6	0	0	---	0.00	30.054 
21:25	65.8	65.8	65.8	74	57.3	0	0	---	0.00	30.055 
21:30	66.0	66.0	66.0	72	56.7	0	3	90	0.00	30.056 
21:35	66.3	66.3	66.3	73	57.4	0	1	90	0.00	30.061 
21:40	66.4	66.4	66.4	71	56.7	0	1	90	0.00	30.065 
21:45	66.4	66.4	66.4	72	57.1	0	1	90	0.00	30.067 
21:50	66.4	66.4	66.4	72	57.1	0	1	90	0.00	30.067 
21:55	66.4	66.4	66.4	72	57.1	0	0	---	0.00	30.068 
22:00	66.8	66.8	66.8	74	58.2	0	2	90	0.00	30.068 
22:05	66.8	66.8	66.8	71	57.1	0	1	90	0.00	30.067 
22:10	66.9	66.9	66.9	70	56.8	0	1	90	0.00	30.067 
22:15	66.9	66.9	66.9	71	57.2	0	1	90	0.00	30.067 
22:20	67.1	67.1	67.1	69	56.6	0	1	90	0.00	30.067 
22:25	67.1	67.1	67.1	71	57.4	0	1	90	0.00	30.067 
22:30	67.1	67.1	67.1	68	56.2	0	2	90	0.00	30.066 
22:35	66.9	66.9	66.9	71	57.2	0	1	90	0.00	30.066 
22:40	66.9	66.9	66.9	70	56.8	0	1	90	0.00	30.067 
22:45	66.6	66.6	66.6	70	56.5	0	1	90	0.00	30.066 
22:50	66.6	66.6	66.6	70	56.5	0	1	90	0.00	30.067 
22:55	66.4	66.4	66.4	70	56.3	0	1	90	0.00	30.068 
23:00	66.4	66.4	66.4	72	57.1	0	1	90	0.00	30.068 
23:05	66.3	66.3	66.3	71	56.6	0	0	---	0.00	30.070 
23:10	66.1	66.1	66.1	71	56.4	0	1	90	0.00	30.072 
23:15	66.0	66.0	66.0	69	55.5	0	0	---	0.00	30.074 
23:20	65.8	65.8	65.8	70	55.7	0	0	---	0.00	30.074 
23:25	65.6	65.6	65.6	69	55.1	0	0	---	0.00	30.075 
23:30	65.6	65.6	65.6	69	55.1	0	0	---	0.00	30.073 
23:35	65.5	65.5	65.5	69	55.1	0	0	---	0.00	30.074 
23:40	65.5	65.5	65.5	69	55.1	0	0	---	0.00	30.074 
23:45	65.5	65.5	65.5	69	55.1	0	0	---	0.00	30.075 
23:50	65.5	65.5	65.5	68	54.7	0	0	---	0.00	30.075 
23:55	65.5	65.5	65.5	69	55.1	0	0	---	0.00	30.077 

CoCoRaHS
IN-AL-39
A2 Web Hosting
Creative Commons License
GoDaddy
Look for:

loaded 2017-10-18 07:08:37 • last modified 2010-11-18 10:43:29
Privacy PolicyDisclaimer
• wx.awcolley.com is powered by PmWiki v.2002016 •
• all content (unless otherwise noted) © 2017 A W Colley